Time;durP1;ratioP1;P1;durP2;ratioP2;P2;SDS_P1;SDS_P2;PMS_P1;PMS_P2;Temp;Humidity;BMP_temperature;BMP_pressure;BME280_temperature;BME280_humidity;BME280_pressure;Samples;Min_cycle;Max_cycle;Signal;HPM_P1;HPM_P2
2021/12/02 00:03:06;;;;;;;9.57;1.65;;;;;;;4.61;87.76;99197.47;10413900;28;20052;-64
2021/12/02 00:08:28;;;;;;;7.32;1.17;;;;;;;4.61;88.07;99218.91;10413132;28;20061;-64
2021/12/02 00:24:58;;;;;;;12.07;1.15;;;;;;;4.58;84.56;99228.63;10411892;28;20048;-64
2021/12/02 00:30:20;;;;;;;8.20;1.38;;;;;;;4.53;83.23;99234.09;10413530;28;20497;-64
2021/12/02 00:35:44;;;;;;;14.88;1.10;;;;;;;4.46;82.23;99229.44;10412205;28;20045;-64
2021/12/02 00:41:10;;;;;;;5.57;1.05;;;;;;;4.57;82.28;99232.13;10412193;28;20121;-64
2021/12/02 00:46:32;;;;;;;6.20;1.10;;;;;;;4.58;81.79;99241.53;10370770;28;20042;-64
2021/12/02 00:51:57;;;;;;;6.55;1.25;;;;;;;4.55;81.53;99254.63;10380120;28;20041;-63
2021/12/02 00:57:19;;;;;;;6.82;1.25;;;;;;;4.57;80.26;99273.41;10412189;28;20141;-64
2021/12/02 01:02:42;;;;;;;15.90;1.60;;;;;;;4.50;80.68;99278.13;10410674;28;20060;-64
2021/12/02 01:08:04;;;;;;;6.75;1.45;;;;;;;4.58;80.46;99285.38;10411693;28;20046;-64
2021/12/02 01:13:26;;;;;;;13.45;1.35;;;;;;;4.55;80.06;99286.41;10371810;28;20054;-63
2021/12/02 01:18:48;;;;;;;7.57;1.10;;;;;;;4.44;81.06;99283.69;10409037;28;20051;-64
2021/12/02 01:24:13;;;;;;;7.97;1.20;;;;;;;4.38;81.08;99288.41;10410118;28;20057;-63
2021/12/02 01:29:37;;;;;;;11.82;1.58;;;;;;;4.25;81.75;99298.69;10410234;28;20486;-64
2021/12/02 01:35:03;;;;;;;8.13;1.63;;;;;;;4.23;80.21;99299.69;10396507;28;20050;-63
2021/12/02 01:40:27;;;;;;;6.43;1.00;;;;;;;4.29;78.93;99307.06;10403909;28;20061;-64
2021/12/02 01:45:48;;;;;;;9.23;1.42;;;;;;;4.24;77.93;99311.66;10382164;28;20047;-64
2021/12/02 01:51:11;;;;;;;7.90;1.10;;;;;;;4.27;76.17;99321.78;10410130;28;20049;-63
2021/12/02 01:56:41;;;;;;;6.20;1.23;;;;;;;4.07;77.17;99322.25;10398153;28;20050;-64
2021/12/02 02:02:09;;;;;;;12.30;1.10;;;;;;;4.07;74.83;99327.41;10406178;28;20050;-63
2021/12/02 02:07:33;;;;;;;10.27;1.15;;;;;;;4.15;73.82;99338.84;10409433;28;20156;-64
2021/12/02 02:13:01;;;;;;;7.85;1.00;;;;;;;4.08;73.36;99332.44;10408728;28;20053;-63
2021/12/02 02:18:24;;;;;;;10.70;1.20;;;;;;;4.01;74.55;99345.81;10410345;28;20115;-64
2021/12/02 02:23:51;;;;;;;7.43;1.00;;;;;;;4.01;72.87;99345.81;10408698;28;20049;-63
2021/12/02 02:29:14;;;;;;;7.70;0.90;;;;;;;3.92;72.55;99346.38;10410162;28;20058;-64
2021/12/02 02:34:35;;;;;;;6.47;1.10;;;;;;;3.92;73.35;99356.69;10409240;28;20072;-64
2021/12/02 02:39:57;;;;;;;4.55;1.25;;;;;;;3.90;73.74;99358.53;10411592;28;20526;-64
2021/12/02 02:45:21;;;;;;;3.38;0.88;;;;;;;3.87;74.06;99369.03;10416291;28;20494;-64
2021/12/02 02:50:43;;;;;;;13.93;1.42;;;;;;;3.71;75.00;99364.91;10416088;28;20049;-64
2021/12/02 02:56:12;;;;;;;8.27;1.15;;;;;;;3.68;76.93;99358.16;10416733;28;20049;-63
2021/12/02 03:02:01;;;;;;;10.93;1.50;;;;;;;3.78;76.68;99365.25;10376882;28;20053;-64
2021/12/02 03:18:16;;;;;;;8.20;1.13;;;;;;;3.72;79.50;99389.72;10415108;28;20063;-64
2021/12/02 03:23:55;;;;;;;7.70;1.02;;;;;;;3.76;79.12;99386.03;10410819;28;20390;-63
2021/12/02 03:29:17;;;;;;;10.95;1.17;;;;;;;3.66;79.68;99390.91;10400688;28;20060;-63
2021/12/02 03:34:40;;;;;;;6.53;0.98;;;;;;;3.68;79.86;99399.38;10417453;28;20053;-64
2021/12/02 03:40:02;;;;;;;8.32;1.20;;;;;;;3.46;82.08;99419.63;10388211;28;20089;-63
2021/12/02 03:45:25;;;;;;;5.80;1.02;;;;;;;3.53;80.70;99426.03;10414500;28;20045;-63
2021/12/02 03:50:47;;;;;;;8.00;1.20;;;;;;;3.57;80.50;99424.09;10416219;28;20053;-63
2021/12/02 03:56:09;;;;;;;9.85;1.10;;;;;;;3.35;82.33;99421.97;10413900;28;20049;-64
2021/12/02 04:01:34;;;;;;;7.97;0.98;;;;;;;3.43;82.56;99426.66;10415117;28;20049;-63
2021/12/02 04:06:55;;;;;;;8.07;1.55;;;;;;;3.36;81.28;99428.75;10412739;28;20049;-64
2021/12/02 04:17:42;;;;;;;6.75;1.23;;;;;;;3.46;84.15;99424.75;10414101;28;20502;-63
2021/12/02 04:23:05;;;;;;;7.47;1.67;;;;;;;3.38;84.85;99426.94;10412522;28;20056;-64
2021/12/02 04:28:26;;;;;;;7.22;1.20;;;;;;;3.36;86.40;99428.75;10414700;28;20060;-64
2021/12/02 04:33:48;;;;;;;12.13;1.60;;;;;;;3.29;88.32;99437.78;10413220;28;20056;-63
2021/12/02 04:39:10;;;;;;;7.53;1.17;;;;;;;3.44;89.10;99430.91;10412564;28;20056;-64
2021/12/02 04:44:31;;;;;;;7.82;1.10;;;;;;;3.48;88.68;99438.38;10412300;28;20041;-64
2021/12/02 04:49:53;;;;;;;7.47;1.02;;;;;;;3.32;90.90;99441.91;10412901;28;20061;-64
2021/12/02 04:55:15;;;;;;;6.00;1.05;;;;;;;3.26;90.55;99450.81;10397557;28;20045;-64
2021/12/02 05:00:36;;;;;;;9.60;1.30;;;;;;;3.32;91.73;99462.50;10413183;28;20061;-63
2021/12/02 05:05:58;;;;;;;8.63;1.20;;;;;;;3.30;91.93;99467.75;10410437;28;20047;-63
2021/12/02 05:11:20;;;;;;;9.88;1.10;;;;;;;3.13;92.75;99478.19;10413508;28;20049;-64
2021/12/02 05:16:44;;;;;;;3.45;0.90;;;;;;;3.14;94.22;99472.13;10386251;28;20499;-64
2021/12/02 05:22:07;;;;;;;5.90;1.00;;;;;;;3.25;93.25;99471.50;10382001;28;20549;-64
2021/12/02 05:27:29;;;;;;;7.57;1.58;;;;;;;3.21;93.74;99480.31;10371235;28;20050;-63
2021/12/02 05:32:51;;;;;;;12.63;1.50;;;;;;;3.11;95.05;99500.59;10405079;28;20045;-64
2021/12/02 05:38:13;;;;;;;8.45;1.08;;;;;;;3.13;98.65;99508.25;10411422;28;20049;-63
2021/12/02 05:43:34;;;;;;;9.70;1.23;;;;;;;3.11;96.33;99516.03;10411352;28;20060;-64
2021/12/02 05:48:56;;;;;;;4.90;1.10;;;;;;;3.18;97.25;99517.38;10420518;28;20067;-64
2021/12/02 05:54:18;;;;;;;6.35;0.90;;;;;;;3.27;95.93;99527.16;10412550;28;20390;-63
2021/12/02 05:59:39;;;;;;;5.68;0.90;;;;;;;3.38;95.90;99519.63;10409554;28;20049;-64
2021/12/02 06:05:01;;;;;;;4.05;0.80;;;;;;;3.30;95.29;99532.13;10410514;28;20398;-64
2021/12/02 06:10:24;;;;;;;6.53;1.13;;;;;;;3.28;96.31;99539.09;10410949;28;20053;-64
2021/12/02 06:15:46;;;;;;;4.18;0.93;;;;;;;3.44;96.04;99552.78;10409285;28;20046;-64
2021/12/02 06:21:07;;;;;;;2.33;0.77;;;;;;;3.47;95.96;99560.34;10418540;28;20055;-65
2021/12/02 06:26:29;;;;;;;3.10;1.02;;;;;;;3.54;95.42;99565.97;10418408;28;20061;-65
2021/12/02 06:31:51;;;;;;;4.18;0.80;;;;;;;3.40;97.15;99563.34;10431096;28;20057;-64
2021/12/02 06:37:13;;;;;;;3.22;1.00;;;;;;;3.42;97.67;99572.63;10419863;28;20042;-64
2021/12/02 06:42:35;;;;;;;5.10;0.80;;;;;;;3.31;98.95;99582.72;10416682;28;20525;-64
2021/12/02 06:48:00;;;;;;;2.00;0.60;;;;;;;3.43;97.78;99579.44;10416430;28;20057;-64
2021/12/02 06:53:22;;;;;;;5.40;0.80;;;;;;;3.43;98.03;99576.88;10418310;28;20052;-64
2021/12/02 06:58:44;;;;;;;5.00;1.02;;;;;;;3.32;98.38;99574.06;10422100;28;20053;-64
2021/12/02 07:04:07;;;;;;;3.33;1.13;;;;;;;3.22;98.43;99584.97;10423806;28;20042;-64
2021/12/02 07:09:29;;;;;;;2.28;1.00;;;;;;;3.15;98.70;99599.91;10416251;28;20058;-65
2021/12/02 07:14:51;;;;;;;1.42;0.80;;;;;;;3.06;98.34;99615.00;10415877;28;20049;-64
2021/12/02 07:20:13;;;;;;;4.78;1.05;;;;;;;3.16;99.18;99606.72;10415984;28;20060;-64
2021/12/02 07:25:35;;;;;;;3.50;1.60;;;;;;;3.17;98.32;99613.53;10413673;28;20052;-64
2021/12/02 07:30:57;;;;;;;3.28;0.85;;;;;;;3.08;98.83;99624.31;10415908;28;20061;-65
2021/12/02 07:36:19;;;;;;;3.67;1.00;;;;;;;2.96;99.46;99619.81;10411415;28;20532;-63
2021/12/02 07:41:42;;;;;;;6.82;1.25;;;;;;;2.96;99.64;99631.88;10418140;28;20046;-64
2021/12/02 07:47:07;;;;;;;5.80;1.20;;;;;;;2.83;99.21;99637.72;10416859;28;20047;-64
2021/12/02 07:52:29;;;;;;;5.70;1.08;;;;;;;2.97;99.26;99644.63;10419530;28;20053;-64
2021/12/02 07:57:52;;;;;;;5.03;1.10;;;;;;;2.66;100.00;99655.78;10415063;28;20045;-64
2021/12/02 08:03:14;;;;;;;3.47;1.17;;;;;;;2.72;100.00;99676.03;10417592;28;20080;-64
2021/12/02 08:08:37;;;;;;;3.83;1.10;;;;;;;2.53;100.00;99688.16;10414488;28;20058;-64
2021/12/02 08:13:59;;;;;;;3.08;1.20;;;;;;;2.64;100.00;99698.75;10413304;28;20056;-64
2021/12/02 08:19:21;;;;;;;3.80;1.00;;;;;;;2.71;100.00;99707.81;10414330;28;20056;-65
2021/12/02 08:24:42;;;;;;;4.03;1.20;;;;;;;2.71;100.00;99715.53;10392916;28;20064;-64
2021/12/02 08:30:07;;;;;;;2.65;0.95;;;;;;;2.55;100.00;99732.66;10411673;28;20417;-64
2021/12/02 08:35:28;;;;;;;3.47;1.30;;;;;;;2.72;100.00;99740.34;10399205;28;20045;-65
2021/12/02 08:40:50;;;;;;;6.68;1.20;;;;;;;2.58;100.00;99755.66;10411169;28;20058;-65
2021/12/02 08:46:12;;;;;;;4.13;1.00;;;;;;;2.67;100.00;99765.47;10411451;28;20049;-65
2021/12/02 08:51:34;;;;;;;4.43;1.17;;;;;;;2.73;100.00;99770.31;10411703;28;20053;-64
2021/12/02 08:56:56;;;;;;;3.58;1.30;;;;;;;2.76;100.00;99780.47;10411528;28;20050;-64
2021/12/02 09:02:18;;;;;;;4.70;1.27;;;;;;;2.75;100.00;99786.50;10411534;28;20429;-64
2021/12/02 09:07:40;;;;;;;4.35;1.08;;;;;;;2.85;100.00;99798.81;10412361;28;20045;-63
2021/12/02 09:13:07;;;;;;;1.50;1.20;;;;;;;2.93;100.00;99807.81;10410745;28;20053;-64
2021/12/02 09:18:29;;;;;;;4.22;1.67;;;;;;;3.04;100.00;99818.44;10414922;28;20085;-65
2021/12/02 09:23:52;;;;;;;3.92;1.40;;;;;;;3.07;100.00;99823.41;10411657;28;20049;-64
2021/12/02 09:29:16;;;;;;;1.63;1.10;;;;;;;3.21;100.00;99826.13;10410230;28;20457;-65
2021/12/02 09:34:38;;;;;;;3.10;1.38;;;;;;;3.19;100.00;99838.25;10412536;28;20473;-65
2021/12/02 09:40:01;;;;;;;2.60;1.23;;;;;;;3.12;98.58;99857.47;10385715;28;20546;-65
2021/12/02 09:45:23;;;;;;;1.52;1.15;;;;;;;3.22;99.00;99868.97;10398521;28;20391;-64
2021/12/02 09:50:53;;;;;;;1.50;1.30;;;;;;;3.27;98.42;99871.34;10409851;28;20053;-65
2021/12/02 09:56:19;;;;;;;2.45;1.52;;;;;;;3.10;98.99;99869.59;10409349;28;20053;-65
2021/12/02 10:01:48;;;;;;;;;;;;;;;3.12;98.55;99867.78;10409720;28;20045;-65
2021/12/02 10:07:20;;;;;;;7.68;1.50;;;;;;;3.15;97.98;99872.78;10409703;28;19921;-65
2021/12/02 10:13:20;;;;;;;1.77;1.55;;;;;;;3.50;95.86;99874.38;10409484;28;20057;-65
2021/12/02 10:18:58;;;;;;;2.50;1.80;;;;;;;3.65;96.46;99881.34;10410502;28;20144;-65
2021/12/02 10:24:23;;;;;;;5.50;2.10;;;;;;;3.72;95.63;99890.44;10386967;28;20498;-63
2021/12/02 10:29:50;;;;;;;2.28;1.60;;;;;;;3.65;96.86;99901.13;10408525;28;20498;-63
2021/12/02 10:35:13;;;;;;;2.72;1.63;;;;;;;3.66;95.70;99908.75;10409615;28;20088;-63
2021/12/02 10:40:36;;;;;;;2.20;1.70;;;;;;;3.76;96.89;99911.69;10408896;28;20107;-63
2021/12/02 10:46:14;;;;;;;3.70;1.98;;;;;;;3.57;97.24;99916.97;10408559;28;20077;-63
2021/12/02 10:51:46;;;;;;;5.20;2.00;;;;;;;3.56;97.26;99925.63;10409624;28;20053;-63
2021/12/02 10:57:18;;;;;;;3.95;2.20;;;;;;;3.54;98.98;99937.72;10408457;28;20392;-63
2021/12/02 11:02:53;;;;;;;3.55;3.00;;;;;;;3.55;100.00;99948.88;10412870;28;20506;-63
2021/12/02 11:08:17;;;;;;;5.37;3.27;;;;;;;3.34;100.00;99966.25;10416258;28;20636;-67
2021/12/02 11:13:48;;;;;;;1.85;1.10;;;;;;;2.63;100.00;99974.84;10416701;28;20637;-64
2021/12/02 11:19:20;;;;;;;2.08;1.10;;;;;;;2.41;100.00;99979.31;10416119;28;20140;-64
2021/12/02 11:24:43;;;;;;;2.08;0.88;;;;;;;2.04;100.00;99989.56;10415494;28;20045;-64
2021/12/02 11:30:16;;;;;;;1.83;0.75;;;;;;;1.86;100.00;99995.50;10415855;28;20049;-65
2021/12/02 11:35:41;;;;;;;1.52;0.73;;;;;;;1.84;100.00;99997.31;10415886;28;20593;-65
2021/12/02 11:41:04;;;;;;;2.00;0.80;;;;;;;1.87;100.00;99997.19;10400581;28;20072;-65
2021/12/02 11:46:26;;;;;;;8.13;0.50;;;;;;;1.77;100.00;100006.16;10414581;28;20041;-64
2021/12/02 11:51:48;;;;;;;2.88;0.40;;;;;;;1.91;100.00;100003.84;10417241;28;20061;-64
2021/12/02 11:57:10;;;;;;;3.60;0.70;;;;;;;1.97;100.00;99999.28;10434887;28;20049;-64
2021/12/02 12:02:32;;;;;;;3.15;0.77;;;;;;;1.96;100.00;100001.91;10421132;28;20413;-64
2021/12/02 12:07:54;;;;;;;2.83;1.42;;;;;;;2.09;100.00;100009.03;10413870;28;20107;-64
2021/12/02 12:13:20;;;;;;;2.20;0.73;;;;;;;2.20;100.00;100011.13;10413162;28;20052;-64
2021/12/02 12:18:42;;;;;;;;;;;;;;;2.33;100.00;100007.13;10414377;28;20046;-64
2021/12/02 12:24:06;;;;;;;1.65;0.70;;;;;;;2.20;100.00;99986.28;10412503;28;19929;-64
2021/12/02 12:29:29;;;;;;;1.90;0.80;;;;;;;2.50;100.00;99989.19;10413876;28;20045;-64
2021/12/02 12:34:57;;;;;;;3.97;1.02;;;;;;;2.63;100.00;100016.00;10420682;28;20509;-64
2021/12/02 12:40:26;;;;;;;3.63;1.08;;;;;;;2.61;100.00;100038.44;10426369;28;20049;-63
2021/12/02 12:45:48;;;;;;;3.33;1.08;;;;;;;2.44;100.00;100046.06;10412904;28;20049;-63
2021/12/02 12:51:26;;;;;;;1.30;1.08;;;;;;;2.43;100.00;100052.09;10411746;28;20064;-63
2021/12/02 12:57:06;;;;;;;2.53;0.82;;;;;;;2.40;100.00;100059.94;10411933;28;20657;-63
2021/12/02 13:02:31;;;;;;;2.95;0.88;;;;;;;2.47;100.00;100067.31;10413041;28;20061;-63
2021/12/02 13:08:30;;;;;;;0.60;0.60;;;;;;;2.40;100.00;100070.22;10411404;28;20463;-63
2021/12/02 13:13:55;;;;;;;0.80;0.80;;;;;;;2.45;100.00;100084.56;10403840;28;20536;-63
2021/12/02 13:19:17;;;;;;;1.27;0.90;;;;;;;2.53;100.00;100097.06;10412964;28;20061;-63
2021/12/02 13:24:41;;;;;;;1.60;1.08;;;;;;;2.65;100.00;100091.38;10411492;28;20049;-63
2021/12/02 13:30:14;;;;;;;2.40;1.20;;;;;;;2.56;100.00;100092.63;10425099;28;20061;-63
2021/12/02 13:35:35;;;;;;;2.38;1.13;;;;;;;2.65;100.00;100106.81;10414077;28;20566;-63
2021/12/02 13:41:10;;;;;;;4.00;1.10;;;;;;;2.52;100.00;100110.84;10413294;28;20091;-63
2021/12/02 13:46:41;;;;;;;2.35;1.30;;;;;;;2.42;100.00;100125.00;10400594;28;20051;-63
2021/12/02 13:52:25;;;;;;;5.45;1.33;;;;;;;2.46;100.00;100129.94;10419753;28;20494;-63
2021/12/02 13:58:05;;;;;;;3.80;1.50;;;;;;;2.63;100.00;100144.63;10411965;28;20053;-63
2021/12/02 14:03:28;;;;;;;4.00;1.90;;;;;;;2.51;100.00;100156.31;10409874;28;20422;-63
2021/12/02 14:08:55;;;;;;;6.05;2.05;;;;;;;2.59;100.00;100173.97;10410169;28;20069;-63
2021/12/02 14:14:18;;;;;;;4.85;2.33;;;;;;;2.62;100.00;100184.16;10419550;28;20421;-63
2021/12/02 14:20:04;;;;;;;3.53;2.20;;;;;;;2.59;100.00;100215.13;10426792;28;20057;-63
2021/12/02 14:25:27;;;;;;;;;;;;;;;2.61;100.00;100236.50;10401238;28;20510;-63
2021/12/02 14:30:52;;;;;;;3.75;2.13;;;;;;;2.56;100.00;100235.84;10383645;28;19947;-63
2021/12/02 14:36:16;;;;;;;3.22;1.80;;;;;;;2.51;100.00;100237.75;10391944;28;20056;-63
2021/12/02 14:41:44;;;;;;;1.98;1.30;;;;;;;2.43;100.00;100239.81;10418176;28;20486;-63
2021/12/02 14:47:11;;;;;;;7.18;1.10;;;;;;;2.42;100.00;100258.72;10417525;28;20049;-63
2021/12/02 14:52:34;;;;;;;1.40;0.88;;;;;;;2.39;100.00;100266.53;10418291;28;20058;-63
2021/12/02 14:58:10;;;;;;;1.52;0.60;;;;;;;2.40;100.00;100255.38;10416778;28;20057;-62
2021/12/02 15:03:32;;;;;;;2.83;0.80;;;;;;;2.21;100.00;100265.56;10415886;28;20092;-63
2021/12/02 15:08:54;;;;;;;2.20;0.68;;;;;;;2.25;100.00;100267.13;10415572;28;20042;-63
2021/12/02 15:14:44;;;;;;;2.80;0.50;;;;;;;2.05;100.00;100279.91;10416017;28;20057;-63
2021/12/02 15:20:14;;;;;;;5.63;0.77;;;;;;;2.04;100.00;100282.53;10416978;28;20088;-63
2021/12/02 15:25:41;;;;;;;2.58;1.70;;;;;;;2.08;100.00;100286.66;10416944;28;20077;-63
2021/12/02 15:31:12;;;;;;;2.63;1.80;;;;;;;2.10;100.00;100290.00;10424395;28;20053;-63
2021/12/02 15:36:35;;;;;;;4.00;1.50;;;;;;;2.13;100.00;100293.28;10399107;28;20041;-63
2021/12/02 15:41:58;;;;;;;3.92;1.23;;;;;;;1.96;100.00;100294.84;10415217;28;20051;-63
2021/12/02 15:47:20;;;;;;;3.42;1.60;;;;;;;1.96;100.00;100308.50;10413972;28;20046;-63
2021/12/02 15:52:46;;;;;;;5.32;2.72;;;;;;;1.92;100.00;100324.97;10414858;28;20056;-63
2021/12/02 15:58:08;;;;;;;;;;;;;;;1.92;100.00;100334.38;10374527;28;20503;-63
2021/12/02 16:03:43;;;;;;;4.57;1.75;;;;;;;1.96;100.00;100348.81;10394508;28;19927;-64
2021/12/02 16:14:36;;;;;;;4.55;2.38;;;;;;;1.82;100.00;100351.03;10415901;28;20055;-63
2021/12/02 16:20:01;;;;;;;4.38;2.88;;;;;;;1.76;100.00;100361.53;10414584;28;20053;-63
2021/12/02 16:25:22;;;;;;;4.65;2.70;;;;;;;1.75;100.00;100367.56;10414543;28;20052;-63
2021/12/02 16:30:49;;;;;;;3.35;2.15;;;;;;;1.58;100.00;100377.63;10412882;28;20575;-64
2021/12/02 16:36:12;;;;;;;5.90;2.42;;;;;;;1.60;100.00;100383.53;10405940;28;20045;-64
2021/12/02 16:41:34;;;;;;;7.32;3.60;;;;;;;1.47;100.00;100395.13;10413605;28;20053;-64
2021/12/02 16:46:55;;;;;;;6.38;3.72;;;;;;;1.66;100.00;100396.16;10412346;28;20053;-64
2021/12/02 16:52:19;;;;;;;8.85;4.40;;;;;;;1.54;100.00;100393.19;10413274;28;20064;-64
2021/12/02 16:57:41;;;;;;;9.30;3.75;;;;;;;1.49;100.00;100401.03;10412295;28;20059;-64
2021/12/02 17:03:04;;;;;;;8.65;4.15;;;;;;;1.63;100.00;100419.38;10411590;28;20049;-64
2021/12/02 17:08:26;;;;;;;7.93;4.75;;;;;;;1.64;100.00;100433.91;10411552;28;20123;-64
2021/12/02 17:13:48;;;;;;;9.88;5.15;;;;;;;1.44;100.00;100428.63;10402580;28;20057;-64
2021/12/02 17:19:10;;;;;;;7.93;4.40;;;;;;;1.64;100.00;100441.59;10407723;28;20049;-63
2021/12/02 17:24:31;;;;;;;9.73;5.35;;;;;;;1.48;100.00;100445.59;10411701;28;20426;-64
2021/12/02 17:29:53;;;;;;;9.75;5.97;;;;;;;1.46;100.00;100449.09;10411070;28;20065;-64
2021/12/02 17:35:17;;;;;;;8.30;6.00;;;;;;;1.60;100.00;100452.88;10410457;28;20045;-63
2021/12/02 17:40:46;;;;;;;10.18;6.38;;;;;;;1.59;100.00;100458.06;10409243;28;20080;-65
2021/12/02 17:46:08;;;;;;;8.80;6.60;;;;;;;1.65;100.00;100463.00;10408083;28;20411;-63
2021/12/02 17:51:31;;;;;;;9.23;5.72;;;;;;;1.52;100.00;100457.44;10400901;28;20606;-64
2021/12/02 17:56:53;;;;;;;9.68;6.53;;;;;;;1.47;100.00;100459.31;10396171;28;20048;-63
2021/12/02 18:02:17;;;;;;;10.23;6.10;;;;;;;1.37;100.00;100460.53;10410131;28;20076;-64
2021/12/02 18:07:38;;;;;;;10.18;6.63;;;;;;;1.35;100.00;100459.72;10404890;28;20060;-63
2021/12/02 18:13:00;;;;;;;15.45;7.22;;;;;;;1.44;100.00;100464.56;10396248;28;20083;-63
2021/12/02 18:18:23;;;;;;;10.98;7.20;;;;;;;1.39;100.00;100476.72;10419871;28;20057;-63
2021/12/02 18:23:44;;;;;;;13.00;7.68;;;;;;;1.31;100.00;100488.94;10413624;28;20140;-63
2021/12/02 18:29:06;;;;;;;17.05;8.35;;;;;;;1.36;100.00;100492.22;10408547;28;20045;-64
2021/12/02 18:34:28;;;;;;;13.73;8.65;;;;;;;1.35;100.00;100494.84;10398831;28;20162;-64
2021/12/02 18:39:51;;;;;;;14.43;8.18;;;;;;;1.30;100.00;100500.13;10402483;28;20056;-63
2021/12/02 18:45:14;;;;;;;13.90;7.95;;;;;;;1.22;100.00;100501.25;10411524;28;20063;-63
2021/12/02 18:50:35;;;;;;;13.68;8.65;;;;;;;1.31;100.00;100499.22;10406161;28;20057;-63
2021/12/02 18:55:59;;;;;;;11.95;7.70;;;;;;;1.23;100.00;100502.94;10407034;28;20524;-64
2021/12/02 19:01:23;;;;;;;12.15;7.90;;;;;;;1.20;100.00;100501.28;10403588;28;20056;-63
2021/12/02 19:06:49;;;;;;;15.30;8.40;;;;;;;1.06;100.00;100505.19;10398537;28;20132;-63
2021/12/02 19:26:09;;;;;;;18.33;9.07;;;;;;;1.04;100.00;100512.94;10402904;28;20057;-63
2021/12/02 19:29:16;;;;;;;13.77;8.55;;;;;;;1.05;100.00;100512.03;10396297;28;20168;-63
2021/12/02 19:34:39;;;;;;;16.48;8.43;;;;;;;1.07;100.00;100523.09;10382935;28;20041;-63
2021/12/02 19:40:02;;;;;;;13.00;7.35;;;;;;;1.13;100.00;100546.03;10397439;28;20056;-64
2021/12/02 19:45:24;;;;;;;10.90;6.88;;;;;;;1.05;100.00;100547.13;10396728;28;20060;-63
2021/12/02 19:50:46;;;;;;;10.95;7.00;;;;;;;1.04;100.00;100553.97;10409740;28;20485;-63
2021/12/02 19:56:07;;;;;;;11.30;6.50;;;;;;;1.01;100.00;100556.66;10409115;28;20061;-64
2021/12/02 20:01:29;;;;;;;10.55;6.82;;;;;;;1.06;100.00;100554.78;10409540;28;20045;-65
2021/12/02 20:06:51;;;;;;;9.85;6.30;;;;;;;0.97;100.00;100557.63;10414137;28;20056;-64
2021/12/02 20:12:13;;;;;;;12.27;5.72;;;;;;;1.00;100.00;100551.56;10404158;28;20144;-64
2021/12/02 20:17:36;;;;;;;10.65;5.38;;;;;;;1.07;100.00;100560.78;10409344;28;20053;-64
2021/12/02 20:22:57;;;;;;;11.50;5.00;;;;;;;1.05;100.00;100557.41;10412765;28;20057;-64
2021/12/02 20:28:20;;;;;;;8.95;4.72;;;;;;;1.02;100.00;100547.22;10413174;28;20504;-64
2021/12/02 20:33:41;;;;;;;8.13;4.88;;;;;;;0.98;100.00;100554.19;10412481;28;20053;-64
2021/12/02 20:39:11;;;;;;;6.88;4.45;;;;;;;1.04;100.00;100545.47;10412565;28;20075;-64
2021/12/02 20:44:44;;;;;;;7.55;4.78;;;;;;;1.07;100.00;100546.19;10408507;28;20065;-64
2021/12/02 20:50:11;;;;;;;8.38;5.10;;;;;;;1.03;100.00;100552.31;10412022;28;20059;-64
2021/12/02 20:55:37;;;;;;;12.40;4.55;;;;;;;1.02;100.00;100572.88;10406393;28;20049;-64
2021/12/02 21:00:59;;;;;;;8.93;4.50;;;;;;;1.06;100.00;100579.63;10411974;28;20045;-64
2021/12/02 21:06:23;;;;;;;6.63;3.97;;;;;;;1.08;100.00;100588.13;10376947;28;20046;-66
2021/12/02 21:11:46;;;;;;;5.25;3.83;;;;;;;1.03;100.00;100583.09;10408291;28;20049;-64
2021/12/02 21:17:08;;;;;;;8.27;3.70;;;;;;;1.08;100.00;100576.09;10419390;28;20046;-65
2021/12/02 21:22:30;;;;;;;6.80;3.53;;;;;;;0.99;100.00;100568.69;10398546;28;20049;-64
2021/12/02 21:27:51;;;;;;;5.03;3.38;;;;;;;0.92;100.00;100570.63;10392665;28;20049;-64
2021/12/02 21:33:13;;;;;;;10.70;3.92;;;;;;;0.94;100.00;100580.00;10396246;28;20060;-64
2021/12/02 21:38:39;;;;;;;6.22;4.00;;;;;;;0.89;100.00;100576.72;10416706;28;20054;-64
2021/12/02 21:44:03;;;;;;;8.13;4.05;;;;;;;0.90;100.00;100588.66;10409410;28;20049;-64
2021/12/02 21:49:27;;;;;;;5.75;3.55;;;;;;;0.78;100.00;100578.75;10409278;28;20514;-64
2021/12/02 21:54:49;;;;;;;5.35;3.60;;;;;;;0.78;100.00;100578.75;10410276;28;20049;-64
2021/12/02 22:00:15;;;;;;;6.05;3.70;;;;;;;0.90;100.00;100582.66;10411053;28;20057;-65
2021/12/02 22:05:37;;;;;;;9.57;3.60;;;;;;;0.97;100.00;100605.53;10396654;28;20496;-64
2021/12/02 22:10:59;;;;;;;7.00;3.92;;;;;;;0.87;100.00;100608.44;10410317;28;20808;-65
2021/12/02 22:16:22;;;;;;;8.27;3.63;;;;;;;0.82;100.00;100610.28;10409904;28;20061;-64
2021/12/02 22:21:44;;;;;;;8.45;3.30;;;;;;;0.88;100.00;100631.47;10409449;28;20054;-64
2021/12/02 22:27:05;;;;;;;5.35;3.22;;;;;;;0.88;100.00;100636.59;10410133;28;20045;-64
2021/12/02 22:32:27;;;;;;;4.85;3.10;;;;;;;0.90;100.00;100644.22;10409171;28;20054;-65
2021/12/02 22:37:51;;;;;;;7.20;3.10;;;;;;;0.94;100.00;100657.78;10409036;28;20105;-64
2021/12/02 22:43:13;;;;;;;7.55;2.70;;;;;;;0.88;100.00;100661.38;10395535;28;20053;-64
2021/12/02 22:48:35;;;;;;;5.32;3.03;;;;;;;0.87;100.00;100646.91;10408511;28;20054;-64
2021/12/02 22:53:57;;;;;;;5.75;2.70;;;;;;;0.94;100.00;100652.66;10408773;28;20053;-64
2021/12/02 22:59:18;;;;;;;6.45;2.70;;;;;;;0.90;100.00;100642.53;10414640;28;20546;-64
2021/12/02 23:04:40;;;;;;;6.22;2.72;;;;;;;0.92;100.00;100647.59;10416200;28;20053;-65
2021/12/02 23:10:03;;;;;;;9.18;2.88;;;;;;;0.96;100.00;100652.59;10414516;28;20061;-66
2021/12/02 23:15:24;;;;;;;5.15;2.90;;;;;;;0.81;100.00;100644.50;10416355;28;20140;-65
2021/12/02 23:20:46;;;;;;;4.90;2.75;;;;;;;0.86;100.00;100648.63;10416470;28;20053;-64
2021/12/02 23:26:16;;;;;;;5.82;2.85;;;;;;;0.87;100.00;100645.16;10416092;28;20064;-64
2021/12/02 23:31:38;;;;;;;6.07;2.85;;;;;;;0.89;100.00;100652.81;10414960;28;20351;-64
2021/12/02 23:37:00;;;;;;;4.03;2.70;;;;;;;0.88;100.00;100646.00;10416392;28;20049;-65
2021/12/02 23:42:22;;;;;;;5.15;2.45;;;;;;;0.89;100.00;100632.28;10417760;28;20068;-65
2021/12/02 23:47:44;;;;;;;4.32;2.35;;;;;;;0.84;100.00;100634.16;10444349;28;20129;-65
2021/12/02 23:53:06;;;;;;;5.90;2.50;;;;;;;0.80;100.00;100630.00;10414759;28;20141;-65
2021/12/02 23:58:28;;;;;;;6.18;2.53;;;;;;;0.75;100.00;100626.72;10415362;28;20053;-65
